Aviation Digital Data Service (ADDS)

Output produced by METARs form (1357 UTC 22 April 2019)
found at http://www.aviationweather.gov/metar/data/
 
METAR text: FABL 221300Z 11007KT 070V140 9999 BKN020 16/13 Q1021 NOSIG
Conditions at: FABL (BLOEMFONTEIN/HER, ZA) observed 1300 UTC 22 April 2019
Temperature: 16.0°C (61°F)
Dewpoint: 13.0°C (55°F) [RH = 82%]
Pressure (altimeter): 30.15 inches Hg (1021.0 mb)
Winds: from the ESE (110 degrees) at 8 MPH (7 knots; 3.6 m/s)
Visibility: 6 or more miles (10+ km)
Ceiling: 2000 feet AGL
Clouds: broken clouds at 2000 feet AGL
Weather: no significant weather observed at this time

METAR text: FABL 221200Z 13007KT 080V160 9999 BKN020 14/13 Q1022 NOSIG
Conditions at: FABL (BLOEMFONTEIN/HER, ZA) observed 1200 UTC 22 April 2019
Temperature: 14.0°C (57°F)
Dewpoint: 13.0°C (55°F) [RH = 94%]
Pressure (altimeter): 30.18 inches Hg (1022.0 mb)
Winds: from the SE (130 degrees) at 8 MPH (7 knots; 3.6 m/s)
Visibility: 6 or more miles (10+ km)
Ceiling: 2000 feet AGL
Clouds: broken clouds at 2000 feet AGL
Weather: no significant weather observed at this time

METAR text: FABL 221100Z 12007KT 9999 -RA FEW007 BKN025 13/12 Q1023 NOSIG
Conditions at: FABL (BLOEMFONTEIN/HER, ZA) observed 1100 UTC 22 April 2019
Temperature: 13.0°C (55°F)
Dewpoint: 12.0°C (54°F) [RH = 94%]
Pressure (altimeter): 30.21 inches Hg (1023.0 mb)
Winds: from the ESE (120 degrees) at 8 MPH (7 knots; 3.6 m/s)
Visibility: 6 or more miles (10+ km)
Ceiling: 2500 feet AGL
Clouds: few clouds at 700 feet AGL
broken clouds at 2500 feet AGL
Weather: -RA  (light rain)

METAR text: FABL 221037Z 11006KT 7000 RA SCT010 BKN050 13/12 Q1023 NOSIG
Conditions at: FABL (BLOEMFONTEIN/HER, ZA) observed 1037 UTC 22 April 2019
Temperature: 13.0°C (55°F)
Dewpoint: 12.0°C (54°F) [RH = 94%]
Pressure (altimeter): 30.21 inches Hg (1023.0 mb)
Winds: from the ESE (110 degrees) at 7 MPH (6 knots; 3.1 m/s)
Visibility: 4 miles ( 7 km)
Ceiling: 5000 feet AGL
Clouds: scattered clouds at 1000 feet AGL
broken clouds at 5000 feet AGL
Weather: RA  (moderate rain)

METAR text: FABL 221036Z 11006KT 8000 SCT010 BKN050 ///// Q1023 NOSIG
Conditions at: FABL (BLOEMFONTEIN/HER, ZA) observed 1036 UTC 22 April 2019
Temperature: missing
Dewpoint: missing
Pressure (altimeter): 30.21 inches Hg (1023.0 mb)
Winds: from the ESE (110 degrees) at 7 MPH (6 knots; 3.1 m/s)
Visibility: 5 miles ( 8 km)
Ceiling: 5000 feet AGL
Clouds: scattered clouds at 1000 feet AGL
broken clouds at 5000 feet AGL
Weather: no significant weather observed at this time

METAR text: FABL 221000Z 10008KT 9999 SCT015 BKN050 14/12 Q1024 NOSIG
Conditions at: FABL (BLOEMFONTEIN/HER, ZA) observed 1000 UTC 22 April 2019
Temperature: 14.0°C (57°F)
Dewpoint: 12.0°C (54°F) [RH = 88%]
Pressure (altimeter): 30.24 inches Hg (1024.0 mb)
Winds: from the E (100 degrees) at 9 MPH (8 knots; 4.1 m/s)
Visibility: 6 or more miles (10+ km)
Ceiling: 5000 feet AGL
Clouds: scattered clouds at 1500 feet AGL
broken clouds at 5000 feet AGL
Weather: no significant weather observed at this time

METAR text: FABL 220900Z 08010KT 9999 -RA SCT015 BKN050 13/11 Q1024 NOSIG
Conditions at: FABL (BLOEMFONTEIN/HER, ZA) observed 0900 UTC 22 April 2019
Temperature: 13.0°C (55°F)
Dewpoint: 11.0°C (52°F) [RH = 88%]
Pressure (altimeter): 30.24 inches Hg (1024.0 mb)
Winds: from the E (80 degrees) at 12 MPH (10 knots; 5.1 m/s)
Visibility: 6 or more miles (10+ km)
Ceiling: 5000 feet AGL
Clouds: scattered clouds at 1500 feet AGL
broken clouds at 5000 feet AGL
Weather: -RA  (light rain)

METAR text: FABL 220800Z 08008KT 9999 -RA SCT005 BKN050 12/11 Q1024 NOSIG
Conditions at: FABL (BLOEMFONTEIN/HER, ZA) observed 0800 UTC 22 April 2019
Temperature: 12.0°C (54°F)
Dewpoint: 11.0°C (52°F) [RH = 94%]
Pressure (altimeter): 30.24 inches Hg (1024.0 mb)
Winds: from the E (80 degrees) at 9 MPH (8 knots; 4.1 m/s)
Visibility: 6 or more miles (10+ km)
Ceiling: 5000 feet AGL
Clouds: scattered clouds at 500 feet AGL
broken clouds at 5000 feet AGL
Weather: -RA  (light rain)

METAR text: FABL 220700Z 08009KT 9999 -RA SCT007 OVC050 12/11 Q1024 NOSIG
Conditions at: FABL (BLOEMFONTEIN/HER, ZA) observed 0700 UTC 22 April 2019
Temperature: 12.0°C (54°F)
Dewpoint: 11.0°C (52°F) [RH = 94%]
Pressure (altimeter): 30.24 inches Hg (1024.0 mb)
Winds: from the E (80 degrees) at 10 MPH (9 knots; 4.6 m/s)
Visibility: 6 or more miles (10+ km)
Ceiling: 5000 feet AGL
Clouds: scattered clouds at 700 feet AGL
overcast cloud deck at 5000 feet AGL
Weather: -RA  (light rain)

METAR text: FABL 220600Z 08007KT 9999 -RA SCT008 OVC050 12/11 Q1023 NOSIG
Conditions at: FABL (BLOEMFONTEIN/HER, ZA) observed 0600 UTC 22 April 2019
Temperature: 12.0°C (54°F)
Dewpoint: 11.0°C (52°F) [RH = 94%]
Pressure (altimeter): 30.21 inches Hg (1023.0 mb)
Winds: from the E (80 degrees) at 8 MPH (7 knots; 3.6 m/s)
Visibility: 6 or more miles (10+ km)
Ceiling: 5000 feet AGL
Clouds: scattered clouds at 800 feet AGL
overcast cloud deck at 5000 feet AGL
Weather: -RA  (light rain)

METAR text: FABL 220500Z 10006KT 9999 SCT008 BKN050 12/11 Q1022 NOSIG
Conditions at: FABL (BLOEMFONTEIN/HER, ZA) observed 0500 UTC 22 April 2019
Temperature: 12.0°C (54°F)
Dewpoint: 11.0°C (52°F) [RH = 94%]
Pressure (altimeter): 30.18 inches Hg (1022.0 mb)
Winds: from the E (100 degrees) at 7 MPH (6 knots; 3.1 m/s)
Visibility: 6 or more miles (10+ km)
Ceiling: 5000 feet AGL
Clouds: scattered clouds at 800 feet AGL
broken clouds at 5000 feet AGL
Weather: no significant weather observed at this time

METAR text: FABL 220400Z 10004KT 9999 FEW008 OVC050 12/11 Q1022 NOSIG
Conditions at: FABL (BLOEMFONTEIN/HER, ZA) observed 0400 UTC 22 April 2019
Temperature: 12.0°C (54°F)
Dewpoint: 11.0°C (52°F) [RH = 94%]
Pressure (altimeter): 30.18 inches Hg (1022.0 mb)
Winds: from the E (100 degrees) at 5 MPH (4 knots; 2.1 m/s)
Visibility: 6 or more miles (10+ km)
Ceiling: 5000 feet AGL
Clouds: few clouds at 800 feet AGL
overcast cloud deck at 5000 feet AGL
Weather: no significant weather observed at this time

METAR text: FABL 220300Z 17006KT 9999 SCT005 OVC030 12/11 Q1022 NOSIG
Conditions at: FABL (BLOEMFONTEIN/HER, ZA) observed 0300 UTC 22 April 2019
Temperature: 12.0°C (54°F)
Dewpoint: 11.0°C (52°F) [RH = 94%]
Pressure (altimeter): 30.18 inches Hg (1022.0 mb)
Winds: from the S (170 degrees) at 7 MPH (6 knots; 3.1 m/s)
Visibility: 6 or more miles (10+ km)
Ceiling: 3000 feet AGL
Clouds: scattered clouds at 500 feet AGL
overcast cloud deck at 3000 feet AGL
Weather: no significant weather observed at this time

METAR text: FABL 220219Z AUTO 18005KT 9999 -RA ///////// 12/11 Q1022
Conditions at: FABL (BLOEMFONTEIN/HER, ZA) observed 0219 UTC 22 April 2019
Temperature: 12.0°C (54°F)
Dewpoint: 11.0°C (52°F) [RH = 94%]
Pressure (altimeter): 30.18 inches Hg (1022.0 mb)
Winds: from the S (180 degrees) at 6 MPH (5 knots; 2.6 m/s)
Visibility: 6 or more miles (10+ km)
Ceiling: unknown
Clouds: missing
Weather: -RA  (light rain)

METAR text: FABL 220200Z AUTO 28005KT 9000 RA ///////// 12/12 Q1023
Conditions at: FABL (BLOEMFONTEIN/HER, ZA) observed 0200 UTC 22 April 2019
Temperature: 12.0°C (54°F)
Dewpoint: 12.0°C (54°F) [RH = 100%]
Pressure (altimeter): 30.21 inches Hg (1023.0 mb)
Winds: from the W (280 degrees) at 6 MPH (5 knots; 2.6 m/s)
Visibility: 6 miles ( 9 km)
Ceiling: unknown
Clouds: missing
Weather: RA  (moderate rain)

METAR text: FABL 220147Z AUTO 28005KT 8000 +RA ///////// 12/12 Q1024
Conditions at: FABL (BLOEMFONTEIN/HER, ZA) observed 0147 UTC 22 April 2019
Temperature: 12.0°C (54°F)
Dewpoint: 12.0°C (54°F) [RH = 100%]
Pressure (altimeter): 30.24 inches Hg (1024.0 mb)
Winds: from the W (280 degrees) at 6 MPH (5 knots; 2.6 m/s)
Visibility: 5 miles ( 8 km)
Ceiling: unknown
Clouds: missing
Weather: +RA  (heavy rain)

METAR text: FABL 220135Z AUTO 27004KT 3200 +RA ///////// 12/12 Q1024
Conditions at: FABL (BLOEMFONTEIN/HER, ZA) observed 0135 UTC 22 April 2019
Temperature: 12.0°C (54°F)
Dewpoint: 12.0°C (54°F) [RH = 100%]
Pressure (altimeter): 30.24 inches Hg (1024.0 mb)
Winds: from the W (270 degrees) at 5 MPH (4 knots; 2.1 m/s)
Visibility: 1.99 miles (3.20 km)
Ceiling: unknown
Clouds: missing
Weather: +RA  (heavy rain)

METAR text: FABL 220113Z AUTO VRB01KT 9000 +RA ///////// 12/12 Q1023
Conditions at: FABL (BLOEMFONTEIN/HER, ZA) observed 0113 UTC 22 April 2019
Temperature: 12.0°C (54°F)
Dewpoint: 12.0°C (54°F) [RH = 100%]
Pressure (altimeter): 30.21 inches Hg (1023.0 mb)
Winds: variable direction winds at 1 MPH (1 knots; 0.5 m/s)
Visibility: 6 miles ( 9 km)
Ceiling: unknown
Clouds: missing
Weather: +RA  (heavy rain)

METAR text: FABL 220112Z AUTO VRB01KT 9000 RA ///////// 12/12 Q1023
Conditions at: FABL (BLOEMFONTEIN/HER, ZA) observed 0112 UTC 22 April 2019
Temperature: 12.0°C (54°F)
Dewpoint: 12.0°C (54°F) [RH = 100%]
Pressure (altimeter): 30.21 inches Hg (1023.0 mb)
Winds: variable direction winds at 1 MPH (1 knots; 0.5 m/s)
Visibility: 6 miles ( 9 km)
Ceiling: unknown
Clouds: missing
Weather: RA  (moderate rain)

METAR text: FABL 220100Z AUTO 14003KT 110V170 9999 -RA ///////// 12/12 Q1023
Conditions at: FABL (BLOEMFONTEIN/HER, ZA) observed 0100 UTC 22 April 2019
Temperature: 12.0°C (54°F)
Dewpoint: 12.0°C (54°F) [RH = 100%]
Pressure (altimeter): 30.21 inches Hg (1023.0 mb)
Winds: from the SE (140 degrees) at 3 MPH (3 knots; 1.5 m/s)
Visibility: 6 or more miles (10+ km)
Ceiling: unknown
Clouds: missing
Weather: -RA  (light rain)

METAR text: FABL 220000Z AUTO 16005KT 9999 -RA ///////// 12/11 Q1023
Conditions at: FABL (BLOEMFONTEIN/HER, ZA) observed 0000 UTC 22 April 2019
Temperature: 12.0°C (54°F)
Dewpoint: 11.0°C (52°F) [RH = 94%]
Pressure (altimeter): 30.21 inches Hg (1023.0 mb)
Winds: from the SSE (160 degrees) at 6 MPH (5 knots; 2.6 m/s)
Visibility: 6 or more miles (10+ km)
Ceiling: unknown
Clouds: missing
Weather: -RA  (light rain)

METAR text: FABL 212300Z AUTO 24005KT 9999 -RA ///////// 12/11 Q1023
Conditions at: FABL (BLOEMFONTEIN/HER, ZA) observed 2300 UTC 21 April 2019
Temperature: 12.0°C (54°F)
Dewpoint: 11.0°C (52°F) [RH = 94%]
Pressure (altimeter): 30.21 inches Hg (1023.0 mb)
Winds: from the WSW (240 degrees) at 6 MPH (5 knots; 2.6 m/s)
Visibility: 6 or more miles (10+ km)
Ceiling: unknown
Clouds: missing
Weather: -RA  (light rain)

METAR text: FABL 212248Z AUTO 25005KT 220V280 9999 -RA ///////// 12/11 Q1023
Conditions at: FABL (BLOEMFONTEIN/HER, ZA) observed 2248 UTC 21 April 2019
Temperature: 12.0°C (54°F)
Dewpoint: 11.0°C (52°F) [RH = 94%]
Pressure (altimeter): 30.21 inches Hg (1023.0 mb)
Winds: from the WSW (250 degrees) at 6 MPH (5 knots; 2.6 m/s)
Visibility: 6 or more miles (10+ km)
Ceiling: unknown
Clouds: missing
Weather: -RA  (light rain)

METAR text: FABL 212236Z AUTO 30003KT 260V340 9000 +RA ///////// 12/11 Q1023
Conditions at: FABL (BLOEMFONTEIN/HER, ZA) observed 2236 UTC 21 April 2019
Temperature: 12.0°C (54°F)
Dewpoint: 11.0°C (52°F) [RH = 94%]
Pressure (altimeter): 30.21 inches Hg (1023.0 mb)
Winds: from the WNW (300 degrees) at 3 MPH (3 knots; 1.5 m/s)
Visibility: 6 miles ( 9 km)
Ceiling: unknown
Clouds: missing
Weather: +RA  (heavy rain)

METAR text: FABL 212225Z AUTO 29005KT 9000 RA ///////// 12/11 Q1023
Conditions at: FABL (BLOEMFONTEIN/HER, ZA) observed 2225 UTC 21 April 2019
Temperature: 12.0°C (54°F)
Dewpoint: 11.0°C (52°F) [RH = 94%]
Pressure (altimeter): 30.21 inches Hg (1023.0 mb)
Winds: from the WNW (290 degrees) at 6 MPH (5 knots; 2.6 m/s)
Visibility: 6 miles ( 9 km)
Ceiling: unknown
Clouds: missing
Weather: RA  (moderate rain)

METAR text: FABL 212200Z AUTO 19003KT 9999 ///////// 12/12 Q1022
Conditions at: FABL (BLOEMFONTEIN/HER, ZA) observed 2200 UTC 21 April 2019
Temperature: 12.0°C (54°F)
Dewpoint: 12.0°C (54°F) [RH = 100%]
Pressure (altimeter): 30.18 inches Hg (1022.0 mb)
Winds: from the S (190 degrees) at 3 MPH (3 knots; 1.5 m/s)
Visibility: 6 or more miles (10+ km)
Ceiling: unknown
Clouds: missing
Weather: no significant weather observed at this time

METAR text: FABL 212100Z AUTO VRB02KT 9999 -RA ///////// 12/11 Q1023
Conditions at: FABL (BLOEMFONTEIN/HER, ZA) observed 2100 UTC 21 April 2019
Temperature: 12.0°C (54°F)
Dewpoint: 11.0°C (52°F) [RH = 94%]
Pressure (altimeter): 30.21 inches Hg (1023.0 mb)
Winds: variable direction winds at 2 MPH (2 knots; 1.0 m/s)
Visibility: 6 or more miles (10+ km)
Ceiling: unknown
Clouds: missing
Weather: -RA  (light rain)

METAR text: FABL 212000Z AUTO VRB02KT 9999 -RA ///////// 13/11 Q1023
Conditions at: FABL (BLOEMFONTEIN/HER, ZA) observed 2000 UTC 21 April 2019
Temperature: 13.0°C (55°F)
Dewpoint: 11.0°C (52°F) [RH = 88%]
Pressure (altimeter): 30.21 inches Hg (1023.0 mb)
Winds: variable direction winds at 2 MPH (2 knots; 1.0 m/s)
Visibility: 6 or more miles (10+ km)
Ceiling: unknown
Clouds: missing
Weather: -RA  (light rain)

METAR text: FABL 211900Z AUTO VRB02KT 9999 ///////// 13/11 Q1023
Conditions at: FABL (BLOEMFONTEIN/HER, ZA) observed 1900 UTC 21 April 2019
Temperature: 13.0°C (55°F)
Dewpoint: 11.0°C (52°F) [RH = 88%]
Pressure (altimeter): 30.21 inches Hg (1023.0 mb)
Winds: variable direction winds at 2 MPH (2 knots; 1.0 m/s)
Visibility: 6 or more miles (10+ km)
Ceiling: unknown
Clouds: missing
Weather: no significant weather observed at this time

METAR text: FABL 211800Z 09003KT 060V120 9999 SCT020 13/11 Q1022 NOSIG
Conditions at: FABL (BLOEMFONTEIN/HER, ZA) observed 1800 UTC 21 April 2019
Temperature: 13.0°C (55°F)
Dewpoint: 11.0°C (52°F) [RH = 88%]
Pressure (altimeter): 30.18 inches Hg (1022.0 mb)
Winds: from the E (90 degrees) at 3 MPH (3 knots; 1.5 m/s)
Visibility: 6 or more miles (10+ km)
Ceiling: at least 12,000 feet AGL
Clouds: scattered clouds at 2000 feet AGL
Weather: no significant weather observed at this time

METAR text: FABL 211700Z 04004KT 9999 SCT020 14/11 Q1022 NOSIG
Conditions at: FABL (BLOEMFONTEIN/HER, ZA) observed 1700 UTC 21 April 2019
Temperature: 14.0°C (57°F)
Dewpoint: 11.0°C (52°F) [RH = 82%]
Pressure (altimeter): 30.18 inches Hg (1022.0 mb)
Winds: from the NE (40 degrees) at 5 MPH (4 knots; 2.1 m/s)
Visibility: 6 or more miles (10+ km)
Ceiling: at least 12,000 feet AGL
Clouds: scattered clouds at 2000 feet AGL
Weather: no significant weather observed at this time

METAR text: FABL 211600Z 02006KT 9999 FEW030 14/11 Q1023 NOSIG
Conditions at: FABL (BLOEMFONTEIN/HER, ZA) observed 1600 UTC 21 April 2019
Temperature: 14.0°C (57°F)
Dewpoint: 11.0°C (52°F) [RH = 82%]
Pressure (altimeter): 30.21 inches Hg (1023.0 mb)
Winds: from the NNE (20 degrees) at 7 MPH (6 knots; 3.1 m/s)
Visibility: 6 or more miles (10+ km)
Ceiling: at least 12,000 feet AGL
Clouds: few clouds at 3000 feet AGL
Weather: no significant weather observed at this time

METAR text: FABL 211500Z 03009KT 9999 FEW030 15/10 Q1022 NOSIG
Conditions at: FABL (BLOEMFONTEIN/HER, ZA) observed 1500 UTC 21 April 2019
Temperature: 15.0°C (59°F)
Dewpoint: 10.0°C (50°F) [RH = 72%]
Pressure (altimeter): 30.18 inches Hg (1022.0 mb)
Winds: from the NNE (30 degrees) at 10 MPH (9 knots; 4.6 m/s)
Visibility: 6 or more miles (10+ km)
Ceiling: at least 12,000 feet AGL
Clouds: few clouds at 3000 feet AGL
Weather: no significant weather observed at this time

METAR text: FABL 211400Z 06011KT 9999 SCT025 16/10 Q1022 NOSIG
Conditions at: FABL (BLOEMFONTEIN/HER, ZA) observed 1400 UTC 21 April 2019
Temperature: 16.0°C (61°F)
Dewpoint: 10.0°C (50°F) [RH = 68%]
Pressure (altimeter): 30.18 inches Hg (1022.0 mb)
Winds: from the ENE (60 degrees) at 13 MPH (11 knots; 5.7 m/s)
Visibility: 6 or more miles (10+ km)
Ceiling: at least 12,000 feet AGL
Clouds: scattered clouds at 2500 feet AGL
Weather: no significant weather observed at this time

METAR text: FABL 211300Z 06012KT 9999 SCT025 16/11 Q1023 NOSIG
Conditions at: FABL (BLOEMFONTEIN/HER, ZA) observed 1300 UTC 21 April 2019
Temperature: 16.0°C (61°F)
Dewpoint: 11.0°C (52°F) [RH = 72%]
Pressure (altimeter): 30.21 inches Hg (1023.0 mb)
Winds: from the ENE (60 degrees) at 14 MPH (12 knots; 6.2 m/s)
Visibility: 6 or more miles (10+ km)
Ceiling: at least 12,000 feet AGL
Clouds: scattered clouds at 2500 feet AGL
Weather: no significant weather observed at this time

METAR text: FABL 211200Z 05013KT 9999 SCT010 15/12 Q1024 NOSIG
Conditions at: FABL (BLOEMFONTEIN/HER, ZA) observed 1200 UTC 21 April 2019
Temperature: 15.0°C (59°F)
Dewpoint: 12.0°C (54°F) [RH = 82%]
Pressure (altimeter): 30.24 inches Hg (1024.0 mb)
Winds: from the NE (50 degrees) at 15 MPH (13 knots; 6.7 m/s)
Visibility: 6 or more miles (10+ km)
Ceiling: at least 12,000 feet AGL
Clouds: scattered clouds at 1000 feet AGL
Weather: no significant weather observed at this time

METAR text: FABL 211100Z 07011KT 9999 SCT010 14/13 Q1024 NOSIG
Conditions at: FABL (BLOEMFONTEIN/HER, ZA) observed 1100 UTC 21 April 2019
Temperature: 14.0°C (57°F)
Dewpoint: 13.0°C (55°F) [RH = 94%]
Pressure (altimeter): 30.24 inches Hg (1024.0 mb)
Winds: from the ENE (70 degrees) at 13 MPH (11 knots; 5.7 m/s)
Visibility: 6 or more miles (10+ km)
Ceiling: at least 12,000 feet AGL
Clouds: scattered clouds at 1000 feet AGL
Weather: no significant weather observed at this time

METAR text: FABL 211000Z 08006KT 040V100 9999 FEW010 OVC050 14/13 Q1025 NOSIG
Conditions at: FABL (BLOEMFONTEIN/HER, ZA) observed 1000 UTC 21 April 2019
Temperature: 14.0°C (57°F)
Dewpoint: 13.0°C (55°F) [RH = 94%]
Pressure (altimeter): 30.27 inches Hg (1025.0 mb)
Winds: from the E (80 degrees) at 7 MPH (6 knots; 3.1 m/s)
Visibility: 6 or more miles (10+ km)
Ceiling: 5000 feet AGL
Clouds: few clouds at 1000 feet AGL
overcast cloud deck at 5000 feet AGL
Weather: no significant weather observed at this time

METAR text: FABL 210900Z 10005KT 9999 -RA SCT010 OVC050 13/12 Q1026 NOSIG
Conditions at: FABL (BLOEMFONTEIN/HER, ZA) observed 0900 UTC 21 April 2019
Temperature: 13.0°C (55°F)
Dewpoint: 12.0°C (54°F) [RH = 94%]
Pressure (altimeter): 30.30 inches Hg (1026.0 mb)
Winds: from the E (100 degrees) at 6 MPH (5 knots; 2.6 m/s)
Visibility: 6 or more miles (10+ km)
Ceiling: 5000 feet AGL
Clouds: scattered clouds at 1000 feet AGL
overcast cloud deck at 5000 feet AGL
Weather: -RA  (light rain)

METAR text: FABL 210800Z 19003KT 130V230 9999 -RA SCT010 OVC050 12/12 Q1026 NOSIG
Conditions at: FABL (BLOEMFONTEIN/HER, ZA) observed 0800 UTC 21 April 2019
Temperature: 12.0°C (54°F)
Dewpoint: 12.0°C (54°F) [RH = 100%]
Pressure (altimeter): 30.30 inches Hg (1026.0 mb)
Winds: from the S (190 degrees) at 3 MPH (3 knots; 1.5 m/s)
Visibility: 6 or more miles (10+ km)
Ceiling: 5000 feet AGL
Clouds: scattered clouds at 1000 feet AGL
overcast cloud deck at 5000 feet AGL
Weather: -RA  (light rain)

METAR text: FABL 210747Z 16005KT 130V250 9000 -RA SCT010 OVC050 12/12 Q1026 NOSIG
Conditions at: FABL (BLOEMFONTEIN/HER, ZA) observed 0747 UTC 21 April 2019
Temperature: 12.0°C (54°F)
Dewpoint: 12.0°C (54°F) [RH = 100%]
Pressure (altimeter): 30.30 inches Hg (1026.0 mb)
Winds: from the SSE (160 degrees) at 6 MPH (5 knots; 2.6 m/s)
Visibility: 6 miles ( 9 km)
Ceiling: 5000 feet AGL
Clouds: scattered clouds at 1000 feet AGL
overcast cloud deck at 5000 feet AGL
Weather: -RA  (light rain)

METAR text: FABL 210700Z 24005KT 7000 +RA SCT010 OVC050 12/12 Q1026 TEMPO 5000
Conditions at: FABL (BLOEMFONTEIN/HER, ZA) observed 0700 UTC 21 April 2019
Temperature: 12.0°C (54°F)
Dewpoint: 12.0°C (54°F) [RH = 100%]
Pressure (altimeter): 30.30 inches Hg (1026.0 mb)
Winds: from the WSW (240 degrees) at 6 MPH (5 knots; 2.6 m/s)
Visibility: 4 miles ( 7 km)
Ceiling: 5000 feet AGL
Clouds: scattered clouds at 1000 feet AGL
overcast cloud deck at 5000 feet AGL
Weather: +RA  (heavy rain)

METAR text: FABL 210600Z 23008KT 9999 -RA SCT010 OVC050 14/11 Q1025 TEMPO 7000 SHRA
Conditions at: FABL (BLOEMFONTEIN/HER, ZA) observed 0600 UTC 21 April 2019
Temperature: 14.0°C (57°F)
Dewpoint: 11.0°C (52°F) [RH = 82%]
Pressure (altimeter): 30.27 inches Hg (1025.0 mb)
Winds: from the SW (230 degrees) at 9 MPH (8 knots; 4.1 m/s)
Visibility: 6 or more miles (10+ km)
Ceiling: 5000 feet AGL
Clouds: scattered clouds at 1000 feet AGL
overcast cloud deck at 5000 feet AGL
Weather: -RA  (light rain)

METAR text: FABL 210544Z 24012KT 220V290 9999 -RA FEW015 OVC050 13/12 Q1024 TEMPO 7000 SHRA
Conditions at: FABL (BLOEMFONTEIN/HER, ZA) observed 0544 UTC 21 April 2019
Temperature: 13.0°C (55°F)
Dewpoint: 12.0°C (54°F) [RH = 94%]
Pressure (altimeter): 30.24 inches Hg (1024.0 mb)
Winds: from the WSW (240 degrees) at 14 MPH (12 knots; 6.2 m/s)
Visibility: 6 or more miles (10+ km)
Ceiling: 5000 feet AGL
Clouds: few clouds at 1500 feet AGL
overcast cloud deck at 5000 feet AGL
Weather: -RA  (light rain)

METAR text: FABL 210500Z 03005KT 9999 FEW020 OVC050 13/12 Q1023 NOSIG
Conditions at: FABL (BLOEMFONTEIN/HER, ZA) observed 0500 UTC 21 April 2019
Temperature: 13.0°C (55°F)
Dewpoint: 12.0°C (54°F) [RH = 94%]
Pressure (altimeter): 30.21 inches Hg (1023.0 mb)
Winds: from the NNE (30 degrees) at 6 MPH (5 knots; 2.6 m/s)
Visibility: 6 or more miles (10+ km)
Ceiling: 5000 feet AGL
Clouds: few clouds at 2000 feet AGL
overcast cloud deck at 5000 feet AGL
Weather: no significant weather observed at this time

METAR text: FABL 210400Z 03011KT 9999 SCT020 OVC050 13/12 Q1023 NOSIG
Conditions at: FABL (BLOEMFONTEIN/HER, ZA) observed 0400 UTC 21 April 2019
Temperature: 13.0°C (55°F)
Dewpoint: 12.0°C (54°F) [RH = 94%]
Pressure (altimeter): 30.21 inches Hg (1023.0 mb)
Winds: from the NNE (30 degrees) at 13 MPH (11 knots; 5.7 m/s)
Visibility: 6 or more miles (10+ km)
Ceiling: 5000 feet AGL
Clouds: scattered clouds at 2000 feet AGL
overcast cloud deck at 5000 feet AGL
Weather: no significant weather observed at this time

METAR text: FABL 210300Z 02003KT 310V070 9999 -RA SCT020 OVC050 13/13 Q1024 NOSIG
Conditions at: FABL (BLOEMFONTEIN/HER, ZA) observed 0300 UTC 21 April 2019
Temperature: 13.0°C (55°F)
Dewpoint: 13.0°C (55°F) [RH = 100%]
Pressure (altimeter): 30.24 inches Hg (1024.0 mb)
Winds: from the NNE (20 degrees) at 3 MPH (3 knots; 1.5 m/s)
Visibility: 6 or more miles (10+ km)
Ceiling: 5000 feet AGL
Clouds: scattered clouds at 2000 feet AGL
overcast cloud deck at 5000 feet AGL
Weather: -RA  (light rain)

METAR text: FABL 210243Z AUTO 36010KT 9999 -RA ///////// 13/12 Q1023
Conditions at: FABL (BLOEMFONTEIN/HER, ZA) observed 0243 UTC 21 April 2019
Temperature: 13.0°C (55°F)
Dewpoint: 12.0°C (54°F) [RH = 94%]
Pressure (altimeter): 30.21 inches Hg (1023.0 mb)
Winds: from the N (360 degrees) at 12 MPH (10 knots; 5.1 m/s)
Visibility: 6 or more miles (10+ km)
Ceiling: unknown
Clouds: missing
Weather: -RA  (light rain)

METAR text: FABL 210218Z AUTO 35011KT 9999 TS ///////// 13/12 Q1023
Conditions at: FABL (BLOEMFONTEIN/HER, ZA) observed 0218 UTC 21 April 2019
Temperature: 13.0°C (55°F)
Dewpoint: 12.0°C (54°F) [RH = 94%]
Pressure (altimeter): 30.21 inches Hg (1023.0 mb)
Winds: from the N (350 degrees) at 13 MPH (11 knots; 5.7 m/s)
Visibility: 6 or more miles (10+ km)
Ceiling: unknown
Clouds: missing
Weather: TS  (thunderstorm)

METAR text: FABL 210200Z AUTO 04005KT 9999 -RA ///////// 13/12 Q1022
Conditions at: FABL (BLOEMFONTEIN/HER, ZA) observed 0200 UTC 21 April 2019
Temperature: 13.0°C (55°F)
Dewpoint: 12.0°C (54°F) [RH = 94%]
Pressure (altimeter): 30.18 inches Hg (1022.0 mb)
Winds: from the NE (40 degrees) at 6 MPH (5 knots; 2.6 m/s)
Visibility: 6 or more miles (10+ km)
Ceiling: unknown
Clouds: missing
Weather: -RA  (light rain)

Forecast for: FABL (BLOEMFONTEIN/HER, ZA)
Text: TAF FABL 221000Z 2212/2312 12005KT 9999 SCT010 BKN035 TX15/2213Z TN10/2304Z
Forecast period: 1200 to 1700 UTC 22 April 2019
Forecast type: FROM: standard forecast or significant change
Winds: from the ESE (120 degrees) at 6 MPH (5 knots; 2.6 m/s)
Visibility: 6 or more miles 10+ km)
Ceiling: 3500 feet AGL
Clouds: scattered clouds at 1000 feet AGL
broken clouds at 3500 feet AGL
Weather: no significant weather forecast for this period
Text: TEMPO 2213/2223 4000 TSRA BKN010 SCT025CB
Forecast period: 1300 to 2300 UTC 22 April 2019
Forecast type: TEMPORARY: The following changes expected for less than half the time period
Visibility: 2.49 miles (4.01 km)
Ceiling: 1000 feet AGL
Clouds: broken clouds at 1000 feet AGL
scattered clouds at 2500 feet AGL
Weather: TSRA  (rain associated with thunderstorm(s))
Text: BECMG 2217/2219 06015KT
Forecast period: 1700 UTC 22 April 2019 to 1200 UTC 23 April 2019
Forecast type: BECOMING: Conditions expected to become as follows by 1900 UTC 22 April 2019
Winds: from the ENE (60 degrees) at 17 MPH (15 knots; 7.7 m/s)
Visibility: 6 or more miles 10+ km)
Ceiling: 3500 feet AGL
Clouds: scattered clouds at 1000 feet AGL
broken clouds at 3500 feet AGL
Weather: no significant weather forecast for this period
Text: PROB30
Forecast period: 2300 UTC 22 April 2019 to 0600 UTC 23 April 2019
Forecast type: TEMPORARY: The following changes expected for less than half the time period
Visibility: 3 miles (5 km)
Ceiling: at least 12,000 feet AGL
Clouds: scattered clouds at 2500 feet AGL
Weather: TSRA  (rain associated with thunderstorm(s))
Text: TEMPO 2223/2306 5000 TSRA SCT025CB
Forecast period: 0600 to 1200 UTC 23 April 2019
Forecast type: TEMPORARY: The following changes expected for less than half the time period
Visibility: 3 miles (5 km)
Ceiling: 1000 feet AGL
Clouds: broken clouds at 1000 feet AGL
Weather: SHRA  (rain showers)